Time;durP1;ratioP1;P1;durP2;ratioP2;P2;SDS_P1;SDS_P2;PMS_P1;PMS_P2;Temp;Humidity;BMP_temperature;BMP_pressure;BME280_temperature;BME280_humidity;BME280_pressure;Samples;Min_cycle;Max_cycle;Signal;HPM_P1;HPM_P2
2023/04/14 00:02:05;;;;;;;;;;;;;;;;;;5042281;28;20274;-70
2023/04/14 00:04:31;;;;;;;;;;;;;;;;;;5042671;28;19938;-70
2023/04/14 00:06:58;;;;;;;;;;;;;;;;;;5037615;28;20285;-70
2023/04/14 00:09:24;;;;;;;;;;;;;;;;;;5043416;28;19916;-70
2023/04/14 00:11:50;;;;;;;;;;;;;;;;;;5045228;28;19912;-71
2023/04/14 00:14:16;;;;;;;;;;;;;;;;;;5040709;28;19955;-71
2023/04/14 00:16:42;;;;;;;;;;;;;;;;;;5045973;28;19912;-71
2023/04/14 00:19:08;;;;;;;;;;;;;;;;;;5039455;28;19913;-70
2023/04/14 00:21:34;;;;;;;;;;;;;;;;;;5044353;28;19913;-70
2023/04/14 00:24:00;;;;;;;;;;;;;;;;;;5043389;28;19917;-70
2023/04/14 00:26:26;;;;;;;;;;;;;;;;;;5042428;28;19934;-70
2023/04/14 00:28:52;;;;;;;;;;;;;;;;;;5039024;28;19912;-71
2023/04/14 00:31:18;;;;;;;;;;;;;;;;;;5039194;28;20019;-71
2023/04/14 00:33:44;;;;;;;;;;;;;;;;;;5041206;28;19982;-70
2023/04/14 00:36:10;;;;;;;;;;;;;;;;;;5051534;28;20400;-70
2023/04/14 00:38:36;;;;;;;;;;;;;;;;;;5043794;28;20498;-70
2023/04/14 00:41:02;;;;;;;;;;;;;;;;;;5062402;28;20145;-71
2023/04/14 00:43:28;;;;;;;;;;;;;;;;;;5055391;28;19920;-71
2023/04/14 00:45:54;;;;;;;;;;;;;;;;;;5048185;28;19916;-70
2023/04/14 00:48:20;;;;;;;;;;;;;;;;;;5041379;28;19998;-70
2023/04/14 00:50:46;;;;;;;;;;;;;;;;;;5061927;28;19965;-71
2023/04/14 00:53:12;;;;;;;;;;;;;;;;;;5061235;28;19951;-71
2023/04/14 00:55:38;;;;;;;;;;;;;;;;;;5042101;28;19995;-71
2023/04/14 00:58:04;;;;;;;;;;;;;;;;;;5062307;28;19912;-70
2023/04/14 01:00:30;;;;;;;;;;;;;;;;;;5061143;28;19916;-71
2023/04/14 01:02:56;;;;;;;;;;;;;;;;;;5061224;28;20331;-71
2023/04/14 01:05:22;;;;;;;;;;;;;;;;;;5058994;28;19912;-71
2023/04/14 01:07:48;;;;;;;;;;;;;;;;;;5058964;28;20003;-71
2023/04/14 01:10:14;;;;;;;;;;;;;;;;;;5062221;28;20353;-71
2023/04/14 01:12:40;;;;;;;;;;;;;;;;;;5061291;28;19944;-71
2023/04/14 01:15:07;;;;;;;;;;;;;;;;;;5062217;28;20003;-70
2023/04/14 01:17:33;;;;;;;;;;;;;;;;;;5063714;28;20397;-71
2023/04/14 01:19:59;;;;;;;;;;;;;;;;;;5063001;28;19922;-71
2023/04/14 01:22:25;;;;;;;;;;;;;;;;;;5058528;28;19999;-72
2023/04/14 01:24:51;;;;;;;;;;;;;;;;;;5060689;28;19911;-71
2023/04/14 01:27:17;;;;;;;;;;;;;;;;;;5055625;28;19912;-70
2023/04/14 01:29:43;;;;;;;;;;;;;;;;;;5058346;28;19951;-71
2023/04/14 01:32:09;;;;;;;;;;;;;;;;;;5044343;28;19919;-70
2023/04/14 01:34:35;;;;;;;;;;;;;;;;;;5043918;28;19916;-71
2023/04/14 01:37:01;;;;;;;;;;;;;;;;;;5057812;28;19923;-71
2023/04/14 01:39:27;;;;;;;;;;;;;;;;;;5040265;28;19916;-71
2023/04/14 01:41:53;;;;;;;;;;;;;;;;;;5061069;28;19916;-71
2023/04/14 01:44:20;;;;;;;;;;;;;;;;;;5040968;28;19923;-71
2023/04/14 01:46:46;;;;;;;;;;;;;;;;;;5043033;28;19912;-70
2023/04/14 01:49:12;;;;;;;;;;;;;;;;;;5057987;28;20277;-70
2023/04/14 01:51:38;;;;;;;;;;;;;;;;;;5057518;28;19912;-71
2023/04/14 01:54:04;;;;;;;;;;;;;;;;;;5058150;28;19912;-71
2023/04/14 01:56:30;;;;;;;;;;;;;;;;;;5063429;28;19916;-71
2023/04/14 01:58:56;;;;;;;;;;;;;;;;;;5061742;28;20324;-71
2023/04/14 02:01:22;;;;;;;;;;;;;;;;;;5055096;28;20301;-71
2023/04/14 02:03:48;;;;;;;;;;;;;;;;;;5060580;28;19969;-70
2023/04/14 02:06:14;;;;;;;;;;;;;;;;;;5053229;28;20086;-71
2023/04/14 02:08:40;;;;;;;;;;;;;;;;;;5039963;28;20430;-70
2023/04/14 02:11:06;;;;;;;;;;;;;;;;;;5054105;28;19912;-70
2023/04/14 02:13:32;;;;;;;;;;;;;;;;;;5053648;28;19919;-70
2023/04/14 02:15:58;;;;;;;;;;;;;;;;;;5059410;28;20152;-70
2023/04/14 02:18:24;;;;;;;;;;;;;;;;;;5037274;28;19969;-70
2023/04/14 02:20:51;;;;;;;;;;;;;;;;;;5036078;28;19919;-70
2023/04/14 02:23:17;;;;;;;;;;;;;;;;;;5051186;28;19968;-72
2023/04/14 02:25:43;;;;;;;;;;;;;;;;;;5062248;28;20023;-70
2023/04/14 02:28:09;;;;;;;;;;;;;;;;;;5057440;28;20025;-71
2023/04/14 02:30:35;;;;;;;;;;;;;;;;;;5053721;28;19919;-70
2023/04/14 02:33:01;;;;;;;;;;;;;;;;;;5059130;28;19912;-70
2023/04/14 02:35:27;;;;;;;;;;;;;;;;;;5053699;28;19924;-70
2023/04/14 02:37:53;;;;;;;;;;;;;;;;;;5043754;28;19993;-70
2023/04/14 02:40:19;;;;;;;;;;;;;;;;;;5055503;28;20007;-71
2023/04/14 02:42:45;;;;;;;;;;;;;;;;;;5058612;28;20399;-70
2023/04/14 02:45:11;;;;;;;;;;;;;;;;;;5052767;28;20371;-71
2023/04/14 02:47:37;;;;;;;;;;;;;;;;;;5059653;28;20440;-70
2023/04/14 02:50:03;;;;;;;;;;;;;;;;;;5042090;28;19923;-70
2023/04/14 02:52:30;;;;;;;;;;;;;;;;;;5040400;28;19912;-70
2023/04/14 02:54:56;;;;;;;;;;;;;;;;;;5060289;28;19911;-70
2023/04/14 02:57:22;;;;;;;;;;;;;;;;;;5037864;28;20277;-70
2023/04/14 02:59:48;;;;;;;;;;;;;;;;;;5055495;28;19958;-70
2023/04/14 03:02:14;;;;;;;;;;;;;;;;;;5040026;28;19919;-70
2023/04/14 03:04:40;;;;;;;;;;;;;;;;;;5040452;28;19947;-69
2023/04/14 03:07:06;;;;;;;;;;;;;;;;;;5053269;28;19920;-70
2023/04/14 03:09:32;;;;;;;;;;;;;;;;;;5058797;28;19919;-70
2023/04/14 03:11:58;;;;;;;;;;;;;;;;;;5057161;28;19916;-70
2023/04/14 03:14:24;;;;;;;;;;;;;;;;;;5053872;28;21107;-70
2023/04/14 03:16:50;;;;;;;;;;;;;;;;;;5041429;28;19912;-70
2023/04/14 03:19:17;;;;;;;;;;;;;;;;;;5039842;28;19924;-70
2023/04/14 03:21:42;;;;;;;;;;;;;;;;;;5060073;28;19916;-70
2023/04/14 03:24:09;;;;;;;;;;;;;;;;;;5054143;28;20342;-72
2023/04/14 03:26:35;;;;;;;;;;;;;;;;;;5040418;28;19933;-69
2023/04/14 03:29:01;;;;;;;;;;;;;;;;;;5057247;28;19916;-69
2023/04/14 03:31:27;;;;;;;;;;;;;;;;;;5040768;28;19918;-70
2023/04/14 03:33:56;;;;;;;;;;;;;;;;;;5064537;28;20019;-71
2023/04/14 03:36:21;;;;;;;;;;;;;;;;;;5055719;28;19973;-69
2023/04/14 03:38:48;;;;;;;;;;;;;;;;;;5062851;28;20243;-69
2023/04/14 03:41:14;;;;;;;;;;;;;;;;;;5046793;28;20373;-70
2023/04/14 03:43:40;;;;;;;;;;;;;;;;;;5050207;28;20477;-69
2023/04/14 03:46:06;;;;;;;;;;;;;;;;;;5045139;28;19913;-69
2023/04/14 03:48:33;;;;;;;;;;;;;;;;;;5044472;28;19994;-71
2023/04/14 03:51:01;;;;;;;;;;;;;;;;;;5047153;28;20735;-69
2023/04/14 03:53:27;;;;;;;;;;;;;;;;;;5041318;28;19998;-70
2023/04/14 03:55:52;;;;;;;;;;;;;;;;;;5064440;28;20015;-70
2023/04/14 03:58:18;;;;;;;;;;;;;;;;;;5040373;28;19922;-70
2023/04/14 04:00:44;;;;;;;;;;;;;;;;;;5059935;28;20022;-70
2023/04/14 04:03:10;;;;;;;;;;;;;;;;;;5041964;28;19969;-70
2023/04/14 04:05:38;;;;;;;;;;;;;;;;;;5046829;28;19916;-70
2023/04/14 04:08:04;;;;;;;;;;;;;;;;;;5057304;28;20340;-70
2023/04/14 04:10:30;;;;;;;;;;;;;;;;;;5062070;28;20300;-71
2023/04/14 04:12:56;;;;;;;;;;;;;;;;;;5047080;28;19962;-70
2023/04/14 04:15:22;;;;;;;;;;;;;;;;;;5059498;28;19911;-70
2023/04/14 04:17:48;;;;;;;;;;;;;;;;;;5065794;28;19908;-70
2023/04/14 04:20:14;;;;;;;;;;;;;;;;;;5055602;28;19920;-69
2023/04/14 04:22:40;;;;;;;;;;;;;;;;;;5044477;28;19908;-70
2023/04/14 04:25:06;;;;;;;;;;;;;;;;;;5041224;28;19916;-70
2023/04/14 04:27:32;;;;;;;;;;;;;;;;;;5063515;28;20194;-72
2023/04/14 04:29:58;;;;;;;;;;;;;;;;;;5065165;28;20290;-71
2023/04/14 04:32:24;;;;;;;;;;;;;;;;;;5061774;28;20347;-72
2023/04/14 04:34:50;;;;;;;;;;;;;;;;;;5044155;28;19912;-70
2023/04/14 04:37:16;;;;;;;;;;;;;;;;;;5041722;28;20046;-70
2023/04/14 04:39:42;;;;;;;;;;;;;;;;;;5059479;28;20259;-71
2023/04/14 04:42:08;;;;;;;;;;;;;;;;;;5041184;28;19989;-70
2023/04/14 04:44:35;;;;;;;;;;;;;;;;;;5059094;28;20487;-70
2023/04/14 04:47:00;;;;;;;;;;;;;;;;;;5044493;28;19965;-71
2023/04/14 04:49:26;;;;;;;;;;;;;;;;;;5041603;28;19911;-70
2023/04/14 04:51:52;;;;;;;;;;;;;;;;;;5061132;28;20234;-70
2023/04/14 04:54:18;;;;;;;;;;;;;;;;;;5060709;28;20022;-70
2023/04/14 04:56:45;;;;;;;;;;;;;;;;;;5066163;28;20328;-70
2023/04/14 04:59:11;;;;;;;;;;;;;;;;;;5064190;28;19920;-70
2023/04/14 05:01:36;;;;;;;;;;;;;;;;;;5048740;28;19918;-72
2023/04/14 05:04:02;;;;;;;;;;;;;;;;;;5043051;28;19938;-69
2023/04/14 05:06:28;;;;;;;;;;;;;;;;;;5058255;28;19916;-70
2023/04/14 05:08:54;;;;;;;;;;;;;;;;;;5060288;28;19912;-70
2023/04/14 05:11:22;;;;;;;;;;;;;;;;;;5040846;28;20007;-69
2023/04/14 05:13:49;;;;;;;;;;;;;;;;;;5056907;28;19912;-70
2023/04/14 05:16:17;;;;;;;;;;;;;;;;;;5055147;28;20164;-69
2023/04/14 05:18:44;;;;;;;;;;;;;;;;;;5048120;28;20315;-71
2023/04/14 05:21:12;;;;;;;;;;;;;;;;;;5043872;28;19965;-71
2023/04/14 05:23:39;;;;;;;;;;;;;;;;;;5070040;28;19924;-70
2023/04/14 05:26:06;;;;;;;;;;;;;;;;;;5061731;28;19977;-70
2023/04/14 05:28:34;;;;;;;;;;;;;;;;;;5061175;28;19916;-70
2023/04/14 05:31:01;;;;;;;;;;;;;;;;;;5061805;28;19923;-70
2023/04/14 05:33:28;;;;;;;;;;;;;;;;;;5062249;28;19931;-71
2023/04/14 05:35:56;;;;;;;;;;;;;;;;;;5038442;28;19978;-70
2023/04/14 05:38:23;;;;;;;;;;;;;;;;;;5038377;28;19958;-70
2023/04/14 05:40:50;;;;;;;;;;;;;;;;;;5041780;28;19915;-69
2023/04/14 05:43:17;;;;;;;;;;;;;;;;;;5035978;28;19925;-69
2023/04/14 05:45:47;;;;;;;;;;;;;;;;;;5037255;28;19928;-69
2023/04/14 05:48:15;;;;;;;;;;;;;;;;;;5037267;28;20590;-70
2023/04/14 05:50:42;;;;;;;;;;;;;;;;;;5038416;28;19921;-69
2023/04/14 05:53:10;;;;;;;;;;;;;;;;;;5037734;28;20467;-70
2023/04/14 05:55:37;;;;;;;;;;;;;;;;;;5043210;28;19912;-72
2023/04/14 05:58:04;;;;;;;;;;;;;;;;;;5041036;28;20361;-71
2023/04/14 06:00:31;;;;;;;;;;;;;;;;;;5038785;28;20274;-71
2023/04/14 06:02:59;;;;;;;;;;;;;;;;;;5039239;28;20444;-71
2023/04/14 06:05:27;;;;;;;;;;;;;;;;;;5034355;28;20196;-71
2023/04/14 06:07:54;;;;;;;;;;;;;;;;;;5038477;28;20449;-70
2023/04/14 06:10:22;;;;;;;;;;;;;;;;;;5036914;28;20385;-70
2023/04/14 06:12:49;;;;;;;;;;;;;;;;;;5040606;28;19913;-70
2023/04/14 06:15:16;;;;;;;;;;;;;;;;;;5033724;28;19974;-70
2023/04/14 06:17:46;;;;;;;;;;;;;;;;;;5043927;28;19987;-70
2023/04/14 06:20:13;;;;;;;;;;;;;;;;;;5034221;28;19912;-70
2023/04/14 06:40:35;;;;;;;;;;;;;;;;;;5036593;28;19924;-71
2023/04/14 06:43:02;;;;;;;;;;;;;;;;;;5037339;28;20239;-71
2023/04/14 06:45:30;;;;;;;;;;;;;;;;;;5034844;28;20293;-71
2023/04/14 06:47:57;;;;;;;;;;;;;;;;;;5037211;28;20778;-70
2023/04/14 06:50:24;;;;;;;;;;;;;;;;;;5033335;28;19920;-72
2023/04/14 06:52:51;;;;;;;;;;;;;;;;;;5035344;28;19916;-69
2023/04/14 06:55:20;;;;;;;;;;;;;;;;;;5033904;28;19912;-70
2023/04/14 06:57:47;;;;;;;;;;;;;;;;;;5038963;28;20362;-70
2023/04/14 07:00:15;;;;;;;;;;;;;;;;;;5035150;28;19923;-71
2023/04/14 07:02:42;;;;;;;;;;;;;;;;;;5041398;28;19915;-70
2023/04/14 07:05:09;;;;;;;;;;;;;;;;;;5034617;28;20576;-70
2023/04/14 07:07:36;;;;;;;;;;;;;;;;;;5034207;28;19913;-70
2023/04/14 07:10:02;;;;;;;;;;;;;;;;;;5040400;28;19916;-71
2023/04/14 07:12:29;;;;;;;;;;;;;;;;;;5033831;28;19913;-70
2023/04/14 07:14:56;;;;;;;;;;;;;;;;;;5039275;28;19998;-70
2023/04/14 07:17:23;;;;;;;;;;;;;;;;;;5035901;28;19915;-71
2023/04/14 07:19:50;;;;;;;;;;;;;;;;;;5037126;28;19920;-70
2023/04/14 07:22:17;;;;;;;;;;;;;;;;;;5036679;28;19908;-70
2023/04/14 07:24:44;;;;;;;;;;;;;;;;;;5038268;28;20159;-69
2023/04/14 07:27:13;;;;;;;;;;;;;;;;;;5032946;28;19912;-71
2023/04/14 07:29:41;;;;;;;;;;;;;;;;;;5035343;28;19920;-71
2023/04/14 07:32:08;;;;;;;;;;;;;;;;;;5031316;28;19917;-70
2023/04/14 07:34:36;;;;;;;;;;;;;;;;;;5037234;28;19924;-71
2023/04/14 07:37:03;;;;;;;;;;;;;;;;;;5034940;28;19916;-71
2023/04/14 07:39:30;;;;;;;;;;;;;;;;;;5038284;28;19916;-71
2023/04/14 07:41:58;;;;;;;;;;;;;;;;;;5035183;28;20321;-71
2023/04/14 07:44:25;;;;;;;;;;;;;;;;;;5033175;28;20890;-70
2023/04/14 07:46:52;;;;;;;;;;;;;;;;;;5038292;28;19965;-70
2023/04/14 07:49:19;;;;;;;;;;;;;;;;;;5030881;28;19913;-72
2023/04/14 07:51:46;;;;;;;;;;;;;;;;;;5038370;28;20002;-72
2023/04/14 07:54:15;;;;;;;;;;;;;;;;;;5037284;28;19956;-71
2023/04/14 07:56:42;;;;;;;;;;;;;;;;;;5035054;28;20382;-71
2023/04/14 07:59:10;;;;;;;;;;;;;;;;;;5032479;28;20023;-71
2023/04/14 08:01:37;;;;;;;;;;;;;;;;;;5036868;28;19978;-71
2023/04/14 08:04:04;;;;;;;;;;;;;;;;;;5036326;28;19916;-71
2023/04/14 08:06:31;;;;;;;;;;;;;;;;;;5038078;28;20270;-71
2023/04/14 08:08:58;;;;;;;;;;;;;;;;;;5038198;28;19909;-71
2023/04/14 08:11:25;;;;;;;;;;;;;;;;;;5037011;28;19924;-71
2023/04/14 08:13:53;;;;;;;;;;;;;;;;;;5038752;28;20281;-71
2023/04/14 08:16:21;;;;;;;;;;;;;;;;;;5035713;28;19966;-69
2023/04/14 08:18:48;;;;;;;;;;;;;;;;;;5041418;28;20274;-71
2023/04/14 08:21:15;;;;;;;;;;;;;;;;;;5030629;28;20135;-71
2023/04/14 08:23:43;;;;;;;;;;;;;;;;;;5039275;28;19916;-71
2023/04/14 08:26:09;;;;;;;;;;;;;;;;;;5038835;28;20409;-71
2023/04/14 08:28:36;;;;;;;;;;;;;;;;;;5040072;28;20616;-71
2023/04/14 08:31:03;;;;;;;;;;;;;;;;;;5042853;28;20223;-71
2023/04/14 08:33:30;;;;;;;;;;;;;;;;;;5042248;28;19924;-71
2023/04/14 08:35:57;;;;;;;;;;;;;;;;;;5052113;28;19943;-72
2023/04/14 08:38:25;;;;;;;;;;;;;;;;;;5061383;28;19913;-70
2023/04/14 08:40:52;;;;;;;;;;;;;;;;;;5065563;28;19914;-70
2023/04/14 08:43:19;;;;;;;;;;;;;;;;;;5040566;28;19920;-70
2023/04/14 08:45:46;;;;;;;;;;;;;;;;;;5042721;28;19919;-70
2023/04/14 08:48:15;;;;;;;;;;;;;;;;;;5059838;28;19937;-70
2023/04/14 08:50:42;;;;;;;;;;;;;;;;;;5057377;28;20039;-70
2023/04/14 08:53:09;;;;;;;;;;;;;;;;;;5056302;28;19912;-70
2023/04/14 08:55:36;;;;;;;;;;;;;;;;;;5063724;28;20521;-72
2023/04/14 08:58:03;;;;;;;;;;;;;;;;;;5040707;28;20022;-71
2023/04/14 09:00:31;;;;;;;;;;;;;;;;;;5062097;28;19965;-71
2023/04/14 09:02:58;;;;;;;;;;;;;;;;;;5059234;28;19920;-71
2023/04/14 09:05:25;;;;;;;;;;;;;;;;;;5041452;28;21695;-71
2023/04/14 09:07:53;;;;;;;;;;;;;;;;;;5046586;28;19912;-71
2023/04/14 09:10:21;;;;;;;;;;;;;;;;;;5057162;28;19916;-70
2023/04/14 09:12:47;;;;;;;;;;;;;;;;;;5062201;28;19912;-71
2023/04/14 09:15:15;;;;;;;;;;;;;;;;;;5060556;28;19919;-71
2023/04/14 09:17:42;;;;;;;;;;;;;;;;;;5046016;28;19958;-71
2023/04/14 09:20:08;;;;;;;;;;;;;;;;;;5054715;28;19912;-70
2023/04/14 09:22:35;;;;;;;;;;;;;;;;;;5042648;28;19913;-70
2023/04/14 09:25:03;;;;;;;;;;;;;;;;;;5045096;28;19916;-70
2023/04/14 09:27:30;;;;;;;;;;;;;;;;;;5039889;28;20704;-70
2023/04/14 09:29:57;;;;;;;;;;;;;;;;;;5055038;28;19917;-70
2023/04/14 09:32:25;;;;;;;;;;;;;;;;;;5040524;28;20247;-70
2023/04/14 09:34:52;;;;;;;;;;;;;;;;;;5037486;28;19955;-69
2023/04/14 09:37:20;;;;;;;;;;;;;;;;;;5016736;28;20019;-70
2023/04/14 09:39:47;;;;;;;;;;;;;;;;;;5017783;28;20734;-69
2023/04/14 09:42:15;;;;;;;;;;;;;;;;;;5016335;28;19919;-69
2023/04/14 09:44:43;;;;;;;;;;;;;;;;;;5015859;28;19920;-70
2023/04/14 09:47:14;;;;;;;;;;;;;;;;;;5014163;28;20343;-70
2023/04/14 09:49:42;;;;;;;;;;;;;;;;;;5021078;28;20337;-69
2023/04/14 09:52:09;;;;;;;;;;;;;;;;;;5018025;28;19916;-69
2023/04/14 09:54:36;;;;;;;;;;;;;;;;;;5019340;28;20584;-69
2023/04/14 09:57:03;;;;;;;;;;;;;;;;;;5019053;28;19916;-69
2023/04/14 09:59:31;;;;;;;;;;;;;;;;;;5018831;28;19920;-69
2023/04/14 10:01:59;;;;;;;;;;;;;;;;;;5020902;28;19920;-70
2023/04/14 10:04:27;;;;;;;;;;;;;;;;;;5017734;28;20876;-70
2023/04/14 10:06:54;;;;;;;;;;;;;;;;;;5019154;28;20610;-69
2023/04/14 10:09:21;;;;;;;;;;;;;;;;;;5016876;28;20311;-69
2023/04/14 10:11:47;;;;;;;;;;;;;;;;;;5023507;28;20385;-69
2023/04/14 10:14:15;;;;;;;;;;;;;;;;;;5017255;28;19916;-69
2023/04/14 10:16:42;;;;;;;;;;;;;;;;;;5020341;28;19916;-70
2023/04/14 10:19:07;;;;;;;;;;;;;;;;;;5018739;28;20397;-71
2023/04/14 10:21:35;;;;;;;;;;;;;;;;;;5019905;28;19912;-70
2023/04/14 10:24:02;;;;;;;;;;;;;;;;;;5022383;28;19923;-72
2023/04/14 10:26:30;;;;;;;;;;;;;;;;;;5019638;28;20326;-70
2023/04/14 10:28:57;;;;;;;;;;;;;;;;;;5019288;28;20111;-70
2023/04/14 10:31:24;;;;;;;;;;;;;;;;;;5053004;28;20584;-69
2023/04/14 10:33:51;;;;;;;;;;;;;;;;;;5057076;28;20014;-69
2023/04/14 10:36:18;;;;;;;;;;;;;;;;;;5056088;28;19916;-69
2023/04/14 10:38:46;;;;;;;;;;;;;;;;;;5060166;28;19922;-69
2023/04/14 10:41:13;;;;;;;;;;;;;;;;;;5056589;28;20204;-70
2023/04/14 10:43:40;;;;;;;;;;;;;;;;;;5057719;28;20251;-70
2023/04/14 10:46:08;;;;;;;;;;;;;;;;;;5039148;28;20342;-70
2023/04/14 10:48:35;;;;;;;;;;;;;;;;;;5060041;28;19924;-70
2023/04/14 10:51:03;;;;;;;;;;;;;;;;;;5040121;28;19919;-69
2023/04/14 10:53:30;;;;;;;;;;;;;;;;;;5039161;28;20401;-70
2023/04/14 10:55:57;;;;;;;;;;;;;;;;;;5044026;28;20286;-70
2023/04/14 10:58:24;;;;;;;;;;;;;;;;;;5049624;28;19977;-71
2023/04/14 11:00:53;;;;;;;;;;;;;;;;;;5044555;28;20353;-71
2023/04/14 11:03:20;;;;;;;;;;;;;;;;;;5035173;28;19947;-70
2023/04/14 11:05:47;;;;;;;;;;;;;;;;;;5056905;28;20026;-71
2023/04/14 11:08:15;;;;;;;;;;;;;;;;;;5037587;28;20362;-71
2023/04/14 11:10:43;;;;;;;;;;;;;;;;;;5040237;28;19978;-69
2023/04/14 11:13:10;;;;;;;;;;;;;;;;;;5041452;28;20615;-69
2023/04/14 11:15:37;;;;;;;;;;;;;;;;;;5059686;28;20332;-69
2023/04/14 11:18:04;;;;;;;;;;;;;;;;;;5058448;28;19997;-69
2023/04/14 11:20:31;;;;;;;;;;;;;;;;;;5051505;28;20354;-69
2023/04/14 11:22:59;;;;;;;;;;;;;;;;;;5057909;28;20354;-69
2023/04/14 11:25:26;;;;;;;;;;;;;;;;;;5056176;28;22766;-69
2023/04/14 11:27:53;;;;;;;;;;;;;;;;;;5058619;28;20342;-70
2023/04/14 11:30:21;;;;;;;;;;;;;;;;;;5055723;28;20038;-70
2023/04/14 11:32:49;;;;;;;;;;;;;;;;;;5058110;28;19920;-70
2023/04/14 11:35:17;;;;;;;;;;;;;;;;;;5052546;28;21488;-71
2023/04/14 11:37:44;;;;;;;;;;;;;;;;;;5061817;28;19920;-71
2023/04/14 11:40:11;;;;;;;;;;;;;;;;;;5059255;28;20311;-70
2023/04/14 11:42:38;;;;;;;;;;;;;;;;;;5061121;28;20427;-69
2023/04/14 11:45:06;;;;;;;;;;;;;;;;;;5060678;28;20135;-70
2023/04/14 11:47:33;;;;;;;;;;;;;;;;;;5043133;28;20359;-69
2023/04/14 11:49:59;;;;;;;;;;;;;;;;;;5037853;28;20369;-69
2023/04/14 11:52:25;;;;;;;;;;;;;;;;;;5058905;28;22773;-68
2023/04/14 11:54:52;;;;;;;;;;;;;;;;;;5046927;28;20014;-69
2023/04/14 11:57:18;;;;;;;;;;;;;;;;;;5062214;28;19912;-70
2023/04/14 11:59:45;;;;;;;;;;;;;;;;;;5043042;28;19916;-69
2023/04/14 12:02:12;;;;;;;;;;;;;;;;;;5058702;28;20369;-69
2023/04/14 12:04:40;;;;;;;;;;;;;;;;;;5040742;28;20354;-70
2023/04/14 12:07:07;;;;;;;;;;;;;;;;;;5059702;28;19912;-69
2023/04/14 12:09:34;;;;;;;;;;;;;;;;;;5063065;28;19907;-69
2023/04/14 12:12:03;;;;;;;;;;;;;;;;;;5045053;28;20003;-69
2023/04/14 12:14:30;;;;;;;;;;;;;;;;;;5057761;28;19911;-69
2023/04/14 12:16:57;;;;;;;;;;;;;;;;;;5041045;28;19922;-69
2023/04/14 12:19:25;;;;;;;;;;;;;;;;;;5055344;28;20331;-69
2023/04/14 12:21:56;;;;;;;;;;;;;;;;;;5058365;28;19908;-73
2023/04/14 12:24:23;;;;;;;;;;;;;;;;;;5057910;28;19915;-70
2023/04/14 12:26:51;;;;;;;;;;;;;;;;;;5059374;28;19912;-70
2023/04/14 12:29:17;;;;;;;;;;;;;;;;;;5056671;28;20542;-70
2023/04/14 12:31:44;;;;;;;;;;;;;;;;;;5059716;28;19916;-70
2023/04/14 12:34:13;;;;;;;;;;;;;;;;;;5058109;28;19916;-70
2023/04/14 12:36:40;;;;;;;;;;;;;;;;;;5057005;28;19989;-70
2023/04/14 12:42:07;;;;;;;;;;;;;;;;;;5057235;28;20164;-70
2023/04/14 12:44:35;;;;;;;;;;;;;;;;;;5056381;28;20240;-70
2023/04/14 12:47:01;;;;;;;;;;;;;;;;;;5060385;28;19994;-70
2023/04/14 12:49:27;;;;;;;;;;;;;;;;;;5056829;28;20081;-69
2023/04/14 12:51:54;;;;;;;;;;;;;;;;;;5057472;28;19916;-69
2023/04/14 12:54:21;;;;;;;;;;;;;;;;;;5039668;28;19922;-69
2023/04/14 12:56:48;;;;;;;;;;;;;;;;;;5058247;28;20425;-69
2023/04/14 12:59:16;;;;;;;;;;;;;;;;;;5030871;28;20421;-69
2023/04/14 13:01:43;;;;;;;;;;;;;;;;;;5038175;28;20484;-69
2023/04/14 13:04:10;;;;;;;;;;;;;;;;;;5033593;28;20383;-71
2023/04/14 13:06:37;;;;;;;;;;;;;;;;;;5032529;28;19959;-68
2023/04/14 13:09:05;;;;;;;;;;;;;;;;;;5036623;28;19920;-69
2023/04/14 13:11:32;;;;;;;;;;;;;;;;;;5037926;28;19941;-69
2023/04/14 13:13:59;;;;;;;;;;;;;;;;;;5037354;28;20441;-69
2023/04/14 13:16:26;;;;;;;;;;;;;;;;;;5033715;28;20301;-69
2023/04/14 13:18:53;;;;;;;;;;;;;;;;;;5035946;28;19912;-69
2023/04/14 13:21:21;;;;;;;;;;;;;;;;;;5035448;28;20140;-68
2023/04/14 13:23:48;;;;;;;;;;;;;;;;;;5037353;28;20355;-69
2023/04/14 13:26:15;;;;;;;;;;;;;;;;;;5034876;28;19999;-69
2023/04/14 13:28:42;;;;;;;;;;;;;;;;;;5033797;28;20036;-70
2023/04/14 13:31:11;;;;;;;;;;;;;;;;;;5036990;28;19915;-69
2023/04/14 13:33:39;;;;;;;;;;;;;;;;;;5037463;28;19912;-69
2023/04/14 13:36:06;;;;;;;;;;;;;;;;;;5031317;28;19912;-69
2023/04/14 13:38:33;;;;;;;;;;;;;;;;;;5036459;28;20318;-68
2023/04/14 13:41:00;;;;;;;;;;;;;;;;;;5037661;28;19960;-70
2023/04/14 13:43:28;;;;;;;;;;;;;;;;;;5033015;28;20003;-70
2023/04/14 13:45:56;;;;;;;;;;;;;;;;;;5038681;28;20296;-68
2023/04/14 13:48:23;;;;;;;;;;;;;;;;;;5034212;28;20026;-70
2023/04/14 13:50:51;;;;;;;;;;;;;;;;;;5033162;28;20039;-69
2023/04/14 13:53:18;;;;;;;;;;;;;;;;;;5035926;28;20472;-70
2023/04/14 13:55:46;;;;;;;;;;;;;;;;;;5035447;28;19915;-70
2023/04/14 13:58:13;;;;;;;;;;;;;;;;;;5035143;28;19924;-69
2023/04/14 14:00:40;;;;;;;;;;;;;;;;;;5038474;28;19966;-69
2023/04/14 14:03:07;;;;;;;;;;;;;;;;;;5034033;28;19920;-69
2023/04/14 14:05:35;;;;;;;;;;;;;;;;;;5036145;28;20054;-70
2023/04/14 14:08:02;;;;;;;;;;;;;;;;;;5033927;28;19916;-69
2023/04/14 14:10:29;;;;;;;;;;;;;;;;;;5036817;28;19912;-70
2023/04/14 14:12:56;;;;;;;;;;;;;;;;;;5032221;28;20349;-69
2023/04/14 14:15:23;;;;;;;;;;;;;;;;;;5034789;28;19958;-70
2023/04/14 14:17:51;;;;;;;;;;;;;;;;;;5034957;28;20370;-69
2023/04/14 14:20:18;;;;;;;;;;;;;;;;;;5034849;28;19920;-70
2023/04/14 14:22:46;;;;;;;;;;;;;;;;;;5039091;28;20308;-70
2023/04/14 14:25:11;;;;;;;;;;;;;;;;;;5032438;28;20719;-69
2023/04/14 14:27:37;;;;;;;;;;;;;;;;;;5038494;28;20976;-70
2023/04/14 14:30:03;;;;;;;;;;;;;;;;;;5037473;28;20484;-71
2023/04/14 14:32:29;;;;;;;;;;;;;;;;;;5033383;28;19912;-69
2023/04/14 14:34:55;;;;;;;;;;;;;;;;;;5034691;28;19912;-69
2023/04/14 14:37:22;;;;;;;;;;;;;;;;;;5032315;28;20687;-69
2023/04/14 14:39:50;;;;;;;;;;;;;;;;;;5038892;28;20282;-68
2023/04/14 14:42:17;;;;;;;;;;;;;;;;;;5031760;28;19916;-70
2023/04/14 14:44:44;;;;;;;;;;;;;;;;;;5036799;28;19920;-69
2023/04/14 14:47:11;;;;;;;;;;;;;;;;;;5034429;28;20003;-70
2023/04/14 14:49:39;;;;;;;;;;;;;;;;;;5035947;28;20362;-68
2023/04/14 14:52:06;;;;;;;;;;;;;;;;;;5031368;28;19927;-68
2023/04/14 14:54:33;;;;;;;;;;;;;;;;;;5036743;28;19912;-70
2023/04/14 14:57:00;;;;;;;;;;;;;;;;;;5035241;28;19916;-69
2023/04/14 14:59:28;;;;;;;;;;;;;;;;;;5051616;28;20015;-70
2023/04/14 15:01:55;;;;;;;;;;;;;;;;;;5039960;28;20043;-70
2023/04/14 15:04:22;;;;;;;;;;;;;;;;;;5034818;28;19998;-69
2023/04/14 15:06:49;;;;;;;;;;;;;;;;;;5054576;28;19919;-71
2023/04/14 15:09:16;;;;;;;;;;;;;;;;;;5054165;28;19920;-70
2023/04/14 15:11:43;;;;;;;;;;;;;;;;;;5039116;28;20427;-70
2023/04/14 15:14:11;;;;;;;;;;;;;;;;;;5037194;28;19916;-70
2023/04/14 15:16:38;;;;;;;;;;;;;;;;;;5056361;28;19912;-69
2023/04/14 15:19:05;;;;;;;;;;;;;;;;;;5053589;28;19920;-69
2023/04/14 15:21:33;;;;;;;;;;;;;;;;;;5054859;28;19927;-69
2023/04/14 15:24:00;;;;;;;;;;;;;;;;;;5057569;28;20284;-69
2023/04/14 15:26:27;;;;;;;;;;;;;;;;;;5057073;28;19912;-70
2023/04/14 15:28:54;;;;;;;;;;;;;;;;;;5055374;28;19935;-70
2023/04/14 15:31:22;;;;;;;;;;;;;;;;;;5035434;28;19912;-70
2023/04/14 15:33:49;;;;;;;;;;;;;;;;;;5054130;28;19948;-71
2023/04/14 15:39:01;;;;;;;;;;;;;;;;;;5049037;28;20437;-70
2023/04/14 15:41:28;;;;;;;;;;;;;;;;;;5053637;28;19912;-70
2023/04/14 15:43:54;;;;;;;;;;;;;;;;;;5037122;28;20558;-70
2023/04/14 15:46:21;;;;;;;;;;;;;;;;;;5027981;28;19920;-70
2023/04/14 15:48:48;;;;;;;;;;;;;;;;;;5036580;28;19920;-70
2023/04/14 15:51:15;;;;;;;;;;;;;;;;;;5052032;28;20319;-70
2023/04/14 15:53:42;;;;;;;;;;;;;;;;;;5057150;28;19923;-70
2023/04/14 15:56:10;;;;;;;;;;;;;;;;;;5054579;28;19946;-70
2023/04/14 15:58:37;;;;;;;;;;;;;;;;;;5053266;28;19946;-70
2023/04/14 16:01:05;;;;;;;;;;;;;;;;;;5056086;28;19995;-70
2023/04/14 16:03:32;;;;;;;;;;;;;;;;;;5060734;28;19927;-71
2023/04/14 16:06:00;;;;;;;;;;;;;;;;;;5054386;28;20521;-70
2023/04/14 16:08:27;;;;;;;;;;;;;;;;;;5037516;28;19916;-70
2023/04/14 16:10:55;;;;;;;;;;;;;;;;;;5038624;28;20425;-70
2023/04/14 16:13:22;;;;;;;;;;;;;;;;;;5051615;28;19912;-70
2023/04/14 16:15:49;;;;;;;;;;;;;;;;;;5055258;28;19924;-70
2023/04/14 16:18:16;;;;;;;;;;;;;;;;;;5052895;28;19951;-69
2023/04/14 16:20:44;;;;;;;;;;;;;;;;;;5056549;28;19916;-69
2023/04/14 16:23:11;;;;;;;;;;;;;;;;;;5032824;28;20282;-70
2023/04/14 16:25:40;;;;;;;;;;;;;;;;;;5037745;28;19916;-69
2023/04/14 16:28:07;;;;;;;;;;;;;;;;;;5034122;28;20313;-69
2023/04/14 16:30:34;;;;;;;;;;;;;;;;;;5051113;28;19946;-71
2023/04/14 16:33:00;;;;;;;;;;;;;;;;;;5055256;28;19912;-69
2023/04/14 16:35:29;;;;;;;;;;;;;;;;;;5031982;28;19967;-69
2023/04/14 16:37:56;;;;;;;;;;;;;;;;;;5041108;28;20037;-70
2023/04/14 16:40:25;;;;;;;;;;;;;;;;;;5055655;28;20097;-69
2023/04/14 16:42:52;;;;;;;;;;;;;;;;;;5058112;28;19922;-69
2023/04/14 16:45:20;;;;;;;;;;;;;;;;;;5035817;28;20658;-70
2023/04/14 16:47:47;;;;;;;;;;;;;;;;;;5043786;28;20341;-70
2023/04/14 16:50:14;;;;;;;;;;;;;;;;;;5041722;28;20357;-70
2023/04/14 16:52:42;;;;;;;;;;;;;;;;;;5062012;28;20273;-70
2023/04/14 16:55:09;;;;;;;;;;;;;;;;;;5034347;28;19943;-70
2023/04/14 16:57:36;;;;;;;;;;;;;;;;;;5056991;28;19923;-70
2023/04/14 17:00:03;;;;;;;;;;;;;;;;;;5056730;28;19916;-71
2023/04/14 17:02:31;;;;;;;;;;;;;;;;;;5056880;28;19919;-70
2023/04/14 17:04:58;;;;;;;;;;;;;;;;;;5041791;28;19966;-70
2023/04/14 17:07:25;;;;;;;;;;;;;;;;;;5056943;28;20512;-71